Hauptseite
METAR-TAF:

METAR-TAF

Flughäfen :

Militärflugplatz Cameri

Novara, Italien

Breite: 45-31N, Länge: 008-40E, Höhe: 178 m

Beobachtung

Neuester Wetterbericht von vor 23 Minuten, um 17:55 UTC
Wind 4 kt aus West
Temperatur 28°C
Luftfeuchtigkeit 51%
Luftdruck 1016 hPa
Sichtweite 10 km oder mehr
keine Wolken unter 1500 m und keine Kumulonimbus oder Gewitterwolken

METAR: LIMN 061755Z 26004KT CAVOK 28/17 Q1016 RMK SKC VIS MIN 9999 BLU

Zeit: 20:18 (18:18 UTC)

Prognose

Neuester Wetterbericht von vor 1 Stunde und 18 Minuten, um 17:00 UTC
Gültige Prognose vom 06 um 18 UTC bis 07 um 03 UTC
Wind 3 kt aus unterschiedlichen Richtungen
Sichtweite 10 km oder mehr
keine Wolken unter 1500 m und keine Kumulonimbus oder Gewitterwolken

TAF: LIMN 061700Z 0618/0703 VRB03KT CAVOK

Wetterbeobachtungen und Prognosen von mehr als 4000 Flughäfen (METAR und TAF Bericht).

Die verfügbaren Stationen werden durch gelbe und rote Markierungen auf der Karte dargestellt.

Führen Sie die Maus auf sie, um den Namen der Station zu sehen.

Darauf klicken, um die Beobachtung von Wetterbeobachtungen und Prognosen zu sehen.

Um die Karte zu ändern : klicken Sie auf den grünen Tasten mit einem schwarzen Kreuz Zum Vergrößern, auf den grünen Button mit einem Gedankenstrich zu verkleinern, oder auf die grünen Pfeile für benachbarte Karten.


METAR-TAF: